Time;durP1;ratioP1;P1;durP2;ratioP2;P2;SDS_P1;SDS_P2;PMS_P1;PMS_P2;Temp;Humidity;BMP_temperature;BMP_pressure;BME280_temperature;BME280_humidity;BME280_pressure;Samples;Min_cycle;Max_cycle;Signal;HPM_P1;HPM_P2
2021/06/22 00:00:30;;;;;;;6.47;3.17;;;13.70;90.10;;;;;;5175191;27;20042;-88
2021/06/22 00:02:56;;;;;;;6.60;3.40;;;13.70;90.10;;;;;;5176494;27;20374;-88
2021/06/22 00:05:27;;;;;;;7.05;3.63;;;13.70;90.10;;;;;;5176023;27;20060;-88
2021/06/22 00:07:55;;;;;;;7.53;3.33;;;13.60;90.20;;;;;;5175244;27;20054;-88
2021/06/22 00:10:23;;;;;;;7.90;3.25;;;13.70;90.10;;;;;;5160809;27;20492;-88
2021/06/22 00:12:49;;;;;;;6.97;3.58;;;13.60;90.00;;;;;;5155742;27;20091;-88
2021/06/22 00:15:17;;;;;;;6.85;3.50;;;13.60;90.10;;;;;;5154820;27;20139;-88
2021/06/22 00:17:44;;;;;;;7.00;3.85;;;13.60;90.20;;;;;;5154849;27;20046;-88
2021/06/22 00:20:11;;;;;;;8.27;3.60;;;13.60;90.30;;;;;;5154761;27;20129;-88
2021/06/22 00:22:38;;;;;;;6.70;3.35;;;13.60;90.00;;;;;;5154802;27;20039;-89
2021/06/22 00:25:06;;;;;;;10.57;3.83;;;13.50;89.80;;;;;;5155553;27;20478;-89
2021/06/22 00:27:32;;;;;;;7.85;3.28;;;13.50;90.00;;;;;;5154278;27;20101;-88
2021/06/22 00:29:58;;;;;;;8.63;3.50;;;13.50;90.00;;;;;;5155230;27;20054;-89
2021/06/22 00:32:24;;;;;;;6.72;3.30;;;13.50;90.00;;;;;;5154915;27;20038;-88
2021/06/22 00:34:50;;;;;;;8.18;3.45;;;13.40;90.10;;;;;;5154621;27;20047;-88
2021/06/22 00:37:17;;;;;;;10.07;3.45;;;13.40;90.00;;;;;;5154427;27;20043;-88
2021/06/22 00:39:45;;;;;;;6.60;3.38;;;13.40;90.00;;;;;;5165063;27;20489;-87
2021/06/22 00:42:11;;;;;;;7.95;3.50;;;13.30;90.00;;;;;;5175276;27;20082;-87
2021/06/22 00:44:47;;;;;;;6.57;3.40;;;13.30;90.10;;;;;;5175383;27;20042;-86
2021/06/22 00:47:15;;;;;;;6.50;3.28;;;13.30;90.20;;;;;;5175560;27;20117;-87
2021/06/22 00:49:41;;;;;;;5.93;3.28;;;13.30;90.40;;;;;;5174739;27;20098;-86
2021/06/22 00:52:07;;;;;;;6.35;3.25;;;13.30;90.30;;;;;;5175498;27;20060;-87
2021/06/22 00:54:34;;;;;;;6.40;3.35;;;13.30;90.40;;;;;;5175382;27;20046;-87
2021/06/22 00:57:00;;;;;;;6.85;3.20;;;13.30;90.50;;;;;;5156246;27;20070;-87
2021/06/22 00:59:25;;;;;;;7.45;3.08;;;13.30;90.40;;;;;;5175384;27;20504;-89
2021/06/22 01:01:52;;;;;;;6.22;3.30;;;13.30;90.40;;;;;;5175588;27;20050;-87
2021/06/22 01:04:18;;;;;;;5.78;2.92;;;13.30;90.40;;;;;;5174874;27;20482;-87
2021/06/22 01:06:44;;;;;;;6.50;3.20;;;13.30;90.30;;;;;;5175190;27;20057;-88
2021/06/22 01:09:09;;;;;;;6.70;3.10;;;13.40;90.30;;;;;;5166271;27;20053;-88
2021/06/22 01:11:38;;;;;;;8.70;3.33;;;13.30;90.20;;;;;;5154340;27;20082;-87
2021/06/22 01:14:04;;;;;;;7.53;2.97;;;13.30;90.40;;;;;;5154490;27;20042;-87
2021/06/22 01:16:30;;;;;;;5.68;2.78;;;13.40;90.40;;;;;;5153753;27;20754;-87
2021/06/22 01:19:07;;;;;;;6.00;3.22;;;13.40;90.40;;;;;;5155594;27;20046;-87
2021/06/22 01:21:34;;;;;;;6.05;2.90;;;13.40;90.20;;;;;;5166836;27;20053;-86
2021/06/22 01:24:15;;;;;;;7.40;3.38;;;13.40;90.30;;;;;;5175059;27;20046;-86
2021/06/22 01:26:49;;;;;;;5.68;3.00;;;13.40;90.20;;;;;;5174935;27;20076;-87
2021/06/22 01:29:15;;;;;;;5.95;2.97;;;13.40;90.30;;;;;;5175463;27;20050;-87
2021/06/22 01:31:42;;;;;;;6.43;2.95;;;13.40;90.20;;;;;;5155883;27;20042;-87
2021/06/22 01:34:08;;;;;;;7.65;3.13;;;13.40;90.30;;;;;;5175407;27;20071;-87
2021/06/22 01:36:35;;;;;;;5.95;2.83;;;13.40;90.20;;;;;;5175295;27;20057;-87
2021/06/22 01:39:05;;;;;;;8.05;3.10;;;13.40;89.80;;;;;;5172493;27;20042;-87
2021/06/22 01:41:31;;;;;;;6.03;2.80;;;13.40;90.00;;;;;;5174794;27;20047;-87
2021/06/22 01:43:58;;;;;;;8.57;3.25;;;13.40;90.00;;;;;;5175317;27;20049;-88
2021/06/22 01:46:24;;;;;;;6.88;3.25;;;13.40;90.00;;;;;;5174233;27;20050;-88
2021/06/22 01:48:50;;;;;;;8.10;3.45;;;13.40;89.50;;;;;;5176496;27;20057;-87
2021/06/22 01:51:16;;;;;;;6.28;3.03;;;13.40;89.60;;;;;;5178709;27;20043;-87
2021/06/22 01:53:49;;;;;;;8.15;3.30;;;13.40;89.10;;;;;;5178227;27;20049;-87
2021/06/22 01:56:15;;;;;;;5.75;3.15;;;13.40;88.90;;;;;;5179066;27;20050;-88
2021/06/22 01:58:41;;;;;;;8.07;3.55;;;13.40;88.80;;;;;;5178228;27;20075;-88
2021/06/22 02:01:06;;;;;;;12.68;6.35;;;13.40;89.20;;;;;;5179292;27;20050;-87
2021/06/22 02:03:32;;;;;;;11.80;4.88;;;13.40;89.20;;;;;;5178022;27;20042;-87
2021/06/22 02:05:58;;;;;;;8.90;4.97;;;13.30;88.80;;;;;;5178450;27;20096;-88
2021/06/22 02:08:24;;;;;;;6.50;3.70;;;13.40;89.10;;;;;;5178513;27;20050;-87
2021/06/22 02:10:50;;;;;;;11.05;4.88;;;13.40;90.00;;;;;;5178756;27;20407;-88
2021/06/22 02:13:16;;;;;;;8.60;5.20;;;13.30;89.40;;;;;;5177890;27;20042;-87
2021/06/22 02:15:42;;;;;;;9.18;4.25;;;13.30;89.50;;;;;;5178355;27;20134;-87
2021/06/22 02:18:08;;;;;;;10.50;5.10;;;13.40;89.30;;;;;;5178973;27;20049;-88
2021/06/22 02:20:36;;;;;;;11.13;5.63;;;13.30;89.30;;;;;;5174053;27;20401;-88
2021/06/22 02:23:01;;;;;;;9.43;5.00;;;13.30;89.30;;;;;;5157776;27;20092;-87
2021/06/22 02:25:27;;;;;;;10.25;5.43;;;13.30;89.70;;;;;;5157314;27;20042;-87
2021/06/22 02:28:05;;;;;;;10.65;6.20;;;13.30;89.50;;;;;;5156565;27;20046;-87
2021/06/22 02:30:32;;;;;;;10.00;5.35;;;13.30;89.50;;;;;;5157641;27;20129;-87
2021/06/22 02:32:58;;;;;;;17.23;9.15;;;13.30;89.90;;;;;;5157620;27;20091;-88
2021/06/22 02:35:24;;;;;;;15.00;7.40;;;13.20;89.40;;;;;;5156840;27;20050;-87
2021/06/22 02:37:52;;;;;;;11.27;6.38;;;13.20;89.00;;;;;;5157358;27;20111;-87
2021/06/22 02:40:19;;;;;;;10.20;6.63;;;13.20;89.40;;;;;;5157175;27;20054;-87
2021/06/22 02:42:46;;;;;;;10.65;6.25;;;13.20;89.20;;;;;;5156628;27;20063;-87
2021/06/22 02:45:12;;;;;;;13.73;6.97;;;13.10;88.90;;;;;;5157515;27;20070;-87
2021/06/22 02:47:38;;;;;;;10.75;6.57;;;13.20;89.00;;;;;;5156450;27;20061;-89
2021/06/22 02:50:05;;;;;;;13.73;8.10;;;13.10;89.40;;;;;;5157455;27;20102;-88
2021/06/22 02:52:31;;;;;;;14.20;7.25;;;13.10;90.10;;;;;;5176250;27;20038;-90
2021/06/22 02:54:57;;;;;;;10.73;7.10;;;13.10;89.50;;;;;;5174835;27;20050;-89
2021/06/22 02:57:23;;;;;;;10.38;6.38;;;13.10;89.10;;;;;;5178100;27;20039;-91
2021/06/22 02:59:48;;;;;;;13.10;7.43;;;13.10;89.00;;;;;;5178188;27;20074;-90
2021/06/22 03:02:14;;;;;;;10.98;7.07;;;13.00;88.60;;;;;;5177375;27;20046;-89
2021/06/22 03:04:40;;;;;;;11.75;7.00;;;13.00;88.70;;;;;;5178032;27;20171;-90
2021/06/22 03:07:05;;;;;;;12.57;7.40;;;13.00;88.70;;;;;;5177784;27;20049;-90
2021/06/22 03:09:31;;;;;;;11.90;7.55;;;13.00;89.20;;;;;;5177103;27;20053;-90
2021/06/22 03:11:57;;;;;;;13.68;7.68;;;13.00;89.40;;;;;;5177962;27;20062;-90
2021/06/22 03:14:24;;;;;;;14.80;7.80;;;13.00;89.90;;;;;;5177318;27;20548;-91
2021/06/22 03:16:50;;;;;;;13.48;8.13;;;13.00;90.00;;;;;;5177401;27;20098;-89
2021/06/22 03:19:18;;;;;;;17.15;8.43;;;12.90;89.90;;;;;;5178005;27;20098;-90
2021/06/22 03:21:46;;;;;;;11.45;8.20;;;12.90;89.80;;;;;;5163422;27;20046;-92
2021/06/22 03:24:13;;;;;;;12.93;8.05;;;12.90;89.70;;;;;;5156454;27;20129;-89
2021/06/22 03:26:39;;;;;;;13.13;8.30;;;12.90;89.60;;;;;;5156804;27;20042;-89
2021/06/22 03:29:05;;;;;;;13.38;8.27;;;12.90;89.70;;;;;;5156853;27;20047;-89
2021/06/22 03:31:33;;;;;;;12.07;8.30;;;12.90;89.80;;;;;;5156051;27;20055;-90
2021/06/22 03:33:58;;;;;;;12.32;8.45;;;12.90;90.10;;;;;;5156543;27;20395;-89
2021/06/22 03:36:24;;;;;;;12.52;8.52;;;12.90;90.20;;;;;;5156251;27;20072;-89
2021/06/22 03:38:50;;;;;;;13.27;8.77;;;12.90;90.30;;;;;;5155811;27;20042;-90
2021/06/22 03:41:16;;;;;;;11.68;8.55;;;12.80;90.30;;;;;;5167928;27;20051;-90
2021/06/22 03:43:42;;;;;;;12.23;8.88;;;12.80;90.30;;;;;;5176823;27;20048;-89
2021/06/22 03:46:08;;;;;;;11.32;8.05;;;12.80;90.40;;;;;;5176394;27;20137;-89
2021/06/22 03:48:34;;;;;;;11.98;8.27;;;12.80;90.40;;;;;;5173172;27;20046;-89
2021/06/22 03:51:00;;;;;;;11.23;8.25;;;12.80;90.50;;;;;;5163897;27;20053;-89
2021/06/22 03:53:26;;;;;;;12.13;8.57;;;12.80;90.40;;;;;;5176485;27;20048;-90
2021/06/22 03:55:52;;;;;;;12.93;9.15;;;12.80;90.30;;;;;;5177648;27;20405;-89
2021/06/22 03:58:18;;;;;;;12.32;8.45;;;12.80;90.30;;;;;;5176394;27;20050;-89
2021/06/22 04:00:43;;;;;;;12.05;8.65;;;12.80;90.30;;;;;;5166360;27;20398;-89
2021/06/22 04:03:14;;;;;;;11.48;8.73;;;12.80;90.30;;;;;;5155738;27;20072;-89
2021/06/22 04:05:40;;;;;;;12.80;8.82;;;12.80;90.30;;;;;;5155112;27;20394;-89
2021/06/22 04:08:06;;;;;;;13.10;8.75;;;12.80;90.30;;;;;;5155634;27;20089;-90
2021/06/22 04:10:32;;;;;;;12.10;8.77;;;12.80;90.30;;;;;;5155659;27;20054;-89
2021/06/22 04:12:58;;;;;;;14.18;9.00;;;12.80;90.30;;;;;;5154329;27;20043;-90
2021/06/22 04:15:24;;;;;;;12.05;9.02;;;12.70;90.30;;;;;;5155347;27;20482;-89
2021/06/22 04:17:50;;;;;;;12.85;8.95;;;12.70;90.30;;;;;;5155802;27;20042;-89
2021/06/22 04:20:16;;;;;;;12.60;8.38;;;12.70;90.30;;;;;;5162922;27;20485;-90
2021/06/22 04:22:42;;;;;;;10.52;8.32;;;12.70;90.20;;;;;;5176618;27;20405;-90
2021/06/22 04:25:08;;;;;;;11.63;8.32;;;12.70;90.20;;;;;;5176725;27;20050;-89
2021/06/22 04:27:35;;;;;;;12.00;8.25;;;12.70;90.10;;;;;;5175722;27;20074;-89
2021/06/22 04:30:01;;;;;;;11.82;8.35;;;12.60;90.30;;;;;;5176651;27;20111;-89
2021/06/22 04:32:27;;;;;;;12.60;8.82;;;12.60;90.30;;;;;;5176533;27;20062;-89
2021/06/22 04:34:53;;;;;;;13.65;8.77;;;12.60;90.40;;;;;;5175559;27;20038;-90
2021/06/22 04:37:19;;;;;;;12.27;8.80;;;12.60;90.50;;;;;;5176311;27;20127;-89
2021/06/22 04:39:45;;;;;;;12.57;8.85;;;12.60;90.40;;;;;;5175635;27;20042;-89
2021/06/22 04:42:10;;;;;;;10.77;8.20;;;12.60;90.30;;;;;;5175757;27;20046;-89
2021/06/22 04:44:36;;;;;;;11.70;8.40;;;12.60;90.40;;;;;;5175662;27;20487;-89
2021/06/22 04:47:02;;;;;;;10.45;8.05;;;12.60;90.40;;;;;;5176100;27;20046;-89
2021/06/22 04:49:28;;;;;;;12.02;8.35;;;12.60;90.20;;;;;;5173986;27;20049;-89
2021/06/22 04:51:54;;;;;;;11.18;8.70;;;12.50;90.30;;;;;;5155113;27;20046;-89
2021/06/22 04:54:19;;;;;;;14.45;9.00;;;12.50;90.40;;;;;;5154615;27;20543;-87
2021/06/22 04:56:46;;;;;;;10.27;7.97;;;12.50;90.40;;;;;;5154584;27;20050;-89
2021/06/22 04:59:12;;;;;;;13.30;8.48;;;12.50;90.40;;;;;;5156067;27;20031;-89
2021/06/22 05:01:38;;;;;;;10.52;7.90;;;12.50;90.40;;;;;;5164041;27;20091;-89
2021/06/22 05:04:06;;;;;;;13.52;9.13;;;12.50;90.40;;;;;;5175775;27;20050;-88
2021/06/22 05:06:31;;;;;;;11.85;8.18;;;12.50;90.40;;;;;;5144443;27;20147;-89
2021/06/22 05:08:57;;;;;;;11.43;8.63;;;12.50;90.30;;;;;;5153829;27;20502;-89
2021/06/22 05:11:23;;;;;;;17.17;9.43;;;12.50;90.50;;;;;;5165872;27;20058;-89
2021/06/22 05:13:48;;;;;;;14.45;8.43;;;12.50;90.30;;;;;;5175774;27;20063;-89
2021/06/22 05:16:18;;;;;;;12.18;8.32;;;12.50;90.30;;;;;;5169696;27;20042;-88
2021/06/22 05:18:47;;;;;;;14.18;8.70;;;12.50;90.30;;;;;;5162591;27;20695;-88
2021/06/22 05:21:14;;;;;;;10.82;8.43;;;12.50;90.30;;;;;;5164137;27;20043;-89
2021/06/22 05:23:40;;;;;;;11.27;8.40;;;12.50;90.40;;;;;;5166360;27;20046;-88
2021/06/22 05:26:06;;;;;;;13.02;9.43;;;12.50;90.20;;;;;;5165975;27;20455;-89
2021/06/22 05:28:31;;;;;;;17.83;10.68;;;12.50;90.30;;;;;;5167777;27;20065;-89
2021/06/22 05:30:57;;;;;;;19.83;10.65;;;12.50;90.10;;;;;;5159599;27;20074;-88
2021/06/22 05:33:23;;;;;;;12.27;8.82;;;12.50;90.10;;;;;;5158575;27;20099;-90
2021/06/22 05:35:49;;;;;;;15.25;9.10;;;12.50;89.90;;;;;;5159102;27;20047;-89
2021/06/22 05:38:15;;;;;;;18.83;10.35;;;12.60;90.00;;;;;;5158244;27;20039;-88
2021/06/22 05:40:41;;;;;;;15.18;9.30;;;12.50;90.10;;;;;;5158841;27;20055;-89
2021/06/22 05:43:06;;;;;;;14.90;9.68;;;12.60;90.30;;;;;;5140501;27;20051;-88
2021/06/22 05:45:32;;;;;;;15.15;9.60;;;12.60;90.20;;;;;;5157950;27;20057;-89
2021/06/22 05:47:58;;;;;;;16.52;9.75;;;12.60;90.20;;;;;;5159836;27;20410;-90
2021/06/22 05:50:24;;;;;;;18.02;9.90;;;12.60;90.10;;;;;;5158323;27;20049;-90
2021/06/22 05:52:50;;;;;;;11.93;9.00;;;12.60;90.00;;;;;;5139246;27;20053;-83
2021/06/22 05:55:16;;;;;;;16.98;9.57;;;12.70;90.10;;;;;;5157852;27;20054;-84
2021/06/22 05:57:51;;;;;;;16.73;9.13;;;12.70;90.00;;;;;;5156106;27;20043;-83
2021/06/22 06:00:19;;;;;;;20.15;9.45;;;12.70;90.00;;;;;;5174468;27;20058;-83
2021/06/22 06:02:44;;;;;;;16.17;8.82;;;12.80;90.00;;;;;;5178251;27;20042;-89
2021/06/22 06:05:11;;;;;;;15.95;8.90;;;12.80;89.70;;;;;;5174902;27;20074;-87
2021/06/22 06:07:37;;;;;;;16.10;8.82;;;12.90;89.80;;;;;;5157461;27;20134;-87
2021/06/22 06:10:04;;;;;;;15.63;8.93;;;12.90;89.90;;;;;;5161765;27;20050;-86
2021/06/22 06:12:30;;;;;;;16.73;8.52;;;12.90;89.80;;;;;;5139283;27;20047;-89
2021/06/22 06:14:56;;;;;;;15.90;8.32;;;13.00;89.40;;;;;;5150664;27;20099;-88
2021/06/22 06:17:22;;;;;;;13.25;8.52;;;13.00;89.20;;;;;;5175279;27;20035;-89
2021/06/22 06:19:48;;;;;;;15.98;7.45;;;13.10;89.40;;;;;;5163439;27;20049;-89
2021/06/22 06:22:14;;;;;;;15.30;7.97;;;13.10;89.20;;;;;;5168387;27;20086;-88
2021/06/22 06:24:39;;;;;;;13.70;8.50;;;13.10;89.10;;;;;;5165371;27;20119;-89
2021/06/22 06:27:13;;;;;;;15.00;7.80;;;13.20;89.20;;;;;;5167163;27;20566;-90
2021/06/22 06:29:58;;;;;;;15.32;7.85;;;13.20;89.10;;;;;;5173015;27;20058;-88
2021/06/22 06:32:24;;;;;;;17.23;7.78;;;13.40;89.20;;;;;;5172932;27;20478;-90
2021/06/22 06:34:50;;;;;;;14.25;7.47;;;13.40;88.90;;;;;;5156087;27;20125;-90
2021/06/22 06:37:17;;;;;;;15.48;6.68;;;13.50;89.00;;;;;;5170098;27;20053;-89
2021/06/22 06:39:43;;;;;;;16.02;6.68;;;13.60;88.60;;;;;;5174154;27;20042;-91
2021/06/22 06:42:09;;;;;;;16.88;8.02;;;13.70;88.30;;;;;;5174168;27;20057;-90
2021/06/22 06:44:35;;;;;;;12.45;7.00;;;13.70;88.40;;;;;;5164091;27;20077;-89
2021/06/22 06:47:01;;;;;;;14.23;6.70;;;13.80;88.50;;;;;;5167388;27;20069;-89
2021/06/22 06:49:26;;;;;;;15.40;5.90;;;13.90;88.50;;;;;;5168313;27;20721;-88
2021/06/22 06:51:52;;;;;;;15.60;6.50;;;13.90;87.90;;;;;;5167018;27;20053;-89
2021/06/22 06:54:18;;;;;;;12.88;6.80;;;14.00;87.80;;;;;;5165051;27;20536;-89
2021/06/22 06:56:44;;;;;;;14.48;6.28;;;14.10;88.00;;;;;;5167890;27;20054;-91
2021/06/22 06:59:11;;;;;;;18.25;5.40;;;14.20;87.70;;;;;;5161394;27;20110;-91
2021/06/22 07:01:36;;;;;;;16.48;5.88;;;14.30;87.10;;;;;;5160823;27;20145;-88
2021/06/22 07:04:02;;;;;;;13.85;5.88;;;14.40;86.70;;;;;;5167204;27;20042;-92
2021/06/22 07:06:28;;;;;;;11.32;5.78;;;14.40;86.70;;;;;;5162324;27;20043;-90
2021/06/22 07:08:53;;;;;;;14.10;5.38;;;14.50;87.00;;;;;;5167142;27;20082;-90
2021/06/22 07:11:21;;;;;;;12.57;5.30;;;14.60;87.10;;;;;;5156291;27;20046;-89
2021/06/22 07:13:50;;;;;;;11.93;5.20;;;14.70;87.30;;;;;;5160748;27;20049;-91
2021/06/22 07:16:16;;;;;;;13.68;5.40;;;14.70;86.60;;;;;;5156242;27;20067;-89
2021/06/22 07:18:42;;;;;;;11.57;5.40;;;14.80;86.00;;;;;;5163803;27;20125;-90
2021/06/22 07:21:08;;;;;;;13.25;4.80;;;14.80;85.80;;;;;;5176023;27;20618;-91
2021/06/22 07:23:34;;;;;;;17.75;5.22;;;14.90;86.10;;;;;;5160958;27;20047;-89
2021/06/22 07:26:03;;;;;;;14.68;4.57;;;14.90;85.70;;;;;;5173308;27;20046;-90
2021/06/22 07:28:30;;;;;;;11.57;4.45;;;15.00;85.70;;;;;;5162082;27;20038;-90
2021/06/22 07:30:56;;;;;;;12.63;4.63;;;15.10;85.30;;;;;;5166407;27;20049;-90
2021/06/22 07:33:22;;;;;;;13.88;4.70;;;15.20;85.20;;;;;;5168691;27;20051;-90
2021/06/22 07:35:48;;;;;;;11.65;4.40;;;15.30;85.70;;;;;;5164084;27;20053;-89
2021/06/22 07:38:14;;;;;;;11.73;4.28;;;15.40;85.80;;;;;;5160738;27;20129;-88
2021/06/22 07:40:54;;;;;;;12.75;4.32;;;15.50;85.20;;;;;;5166553;27;20061;-89
2021/06/22 07:43:22;;;;;;;14.57;4.13;;;15.70;85.10;;;;;;5165474;27;20049;-89
2021/06/22 07:45:47;;;;;;;10.90;4.13;;;15.70;84.00;;;;;;5159202;27;20051;-89
2021/06/22 07:48:13;;;;;;;13.00;4.82;;;15.80;83.80;;;;;;5159031;27;20053;-89
2021/06/22 07:50:39;;;;;;;9.48;3.70;;;15.80;84.20;;;;;;5173263;27;20482;-85
2021/06/22 07:53:05;;;;;;;13.02;3.88;;;15.90;84.20;;;;;;5173124;27;20050;-88
2021/06/22 07:55:34;;;;;;;11.70;3.70;;;15.80;83.90;;;;;;5157896;27;20480;-89
2021/06/22 07:58:00;;;;;;;11.13;3.90;;;15.90;84.10;;;;;;5172426;27;20046;-89
2021/06/22 08:00:41;;;;;;;9.52;4.25;;;16.00;84.00;;;;;;5169592;27;20058;-88
2021/06/22 08:03:09;;;;;;;11.15;3.28;;;16.00;83.90;;;;;;5164480;27;20038;-89
2021/06/22 08:05:35;;;;;;;6.85;3.42;;;16.00;83.50;;;;;;5159863;27;20086;-88
2021/06/22 08:08:01;;;;;;;11.02;3.78;;;16.10;83.80;;;;;;5158747;27;20054;-88
2021/06/22 08:10:27;;;;;;;13.75;3.50;;;16.10;83.70;;;;;;5168147;27;20390;-84
2021/06/22 08:12:53;;;;;;;10.35;3.30;;;16.20;83.60;;;;;;5166091;27;20103;-88
2021/06/22 08:15:19;;;;;;;11.57;3.25;;;16.30;81.50;;;;;;5167916;27;20054;-87
2021/06/22 08:17:45;;;;;;;9.70;3.40;;;16.40;81.60;;;;;;5158737;27;20039;-88
2021/06/22 08:20:12;;;;;;;12.05;3.30;;;16.50;82.40;;;;;;5170871;27;20046;-89
2021/06/22 08:22:38;;;;;;;11.48;3.67;;;16.60;81.80;;;;;;5168530;27;20055;-89
2021/06/22 08:25:08;;;;;;;12.20;3.22;;;16.70;81.40;;;;;;5166038;27;20049;-89
2021/06/22 08:27:33;;;;;;;10.23;3.10;;;16.70;79.50;;;;;;5159969;27;20054;-89
2021/06/22 08:29:59;;;;;;;11.30;3.55;;;16.80;80.50;;;;;;5172297;27;20042;-91
2021/06/22 08:32:25;;;;;;;9.65;3.25;;;16.90;81.60;;;;;;5161823;27;20045;-89
2021/06/22 08:34:51;;;;;;;10.90;3.15;;;17.00;81.10;;;;;;5166716;27;20087;-92
2021/06/22 08:37:17;;;;;;;8.88;3.05;;;17.00;80.80;;;;;;5160099;27;20451;-89
2021/06/22 08:39:43;;;;;;;7.90;3.30;;;17.10;80.70;;;;;;5166669;27;20046;-86
2021/06/22 08:42:11;;;;;;;9.05;3.08;;;17.10;81.40;;;;;;5160988;27;21459;-90
2021/06/22 08:44:38;;;;;;;8.57;3.08;;;17.20;81.60;;;;;;5170638;27;20452;-91
2021/06/22 08:47:03;;;;;;;13.30;2.72;;;17.20;82.40;;;;;;5165247;27;20095;-92
2021/06/22 08:49:33;;;;;;;7.63;2.80;;;17.20;79.70;;;;;;5154717;27;20046;-93
2021/06/22 08:52:00;;;;;;;11.52;3.38;;;17.30;80.40;;;;;;5172131;27;20088;-88
2021/06/22 08:54:26;;;;;;;9.73;3.25;;;17.30;80.20;;;;;;5164433;27;20442;-91
2021/06/22 08:56:54;;;;;;;7.22;2.90;;;17.30;79.50;;;;;;5166635;27;20043;-87
2021/06/22 08:59:20;;;;;;;8.20;3.00;;;17.30;79.80;;;;;;5134973;27;20038;-92
2021/06/22 09:01:46;;;;;;;7.05;2.50;;;17.40;77.40;;;;;;5165609;27;20053;-89
2021/06/22 09:04:12;;;;;;;10.63;2.92;;;17.30;78.30;;;;;;5170509;27;20094;-89
2021/06/22 09:06:41;;;;;;;9.77;3.10;;;17.40;78.10;;;;;;5161492;27;20078;-88
2021/06/22 09:09:09;;;;;;;10.38;3.08;;;17.40;76.00;;;;;;5163443;27;20107;-89
2021/06/22 09:11:36;;;;;;;9.02;2.97;;;17.40;77.20;;;;;;5166117;27;20042;-92
2021/06/22 09:14:05;;;;;;;10.50;2.88;;;17.50;77.00;;;;;;5171238;27;20058;-89
2021/06/22 09:16:31;;;;;;;10.77;2.83;;;17.50;75.70;;;;;;5168026;27;20075;-92
2021/06/22 09:19:02;;;;;;;7.53;3.13;;;17.50;76.70;;;;;;5155860;27;20591;-93
2021/06/22 09:21:28;;;;;;;6.10;2.80;;;17.60;78.80;;;;;;5161130;27;20371;-90
2021/06/22 09:23:56;;;;;;;8.55;3.03;;;17.70;79.10;;;;;;5155951;27;20050;-92
2021/06/22 09:26:24;;;;;;;8.80;3.00;;;17.90;79.50;;;;;;5165187;27;20038;-92
2021/06/22 09:28:52;;;;;;;10.73;2.78;;;18.00;79.70;;;;;;5162482;27;20038;-92
2021/06/22 09:31:20;;;;;;;8.20;2.67;;;18.10;78.60;;;;;;5168761;27;20050;-93
2021/06/22 09:33:54;;;;;;;8.10;2.90;;;18.20;78.60;;;;;;5158527;27;20505;-89
2021/06/22 09:36:26;;;;;;;9.88;2.92;;;18.30;79.50;;;;;;5157941;27;20042;-89
2021/06/22 09:39:07;;;;;;;11.48;2.80;;;18.40;78.10;;;;;;5165825;27;20107;-90
2021/06/22 09:41:39;;;;;;;10.13;2.60;;;18.40;75.50;;;;;;5153935;27;20435;-89
2021/06/22 09:44:10;;;;;;;7.13;2.85;;;18.50;73.50;;;;;;5170441;27;20099;-88
2021/06/22 09:46:43;;;;;;;6.72;2.25;;;18.60;75.50;;;;;;5167590;27;20531;-89
2021/06/22 09:49:30;;;;;;;;;;;18.60;71.90;;;;;;5169033;27;20043;-89
2021/06/22 09:52:03;;;;;;;10.43;2.63;;;18.50;71.30;;;;;;5158828;27;19919;-88
2021/06/22 09:54:34;;;;;;;9.38;2.95;;;18.50;72.90;;;;;;5166174;27;20054;-90
2021/06/22 09:57:20;;;;;;;8.02;3.10;;;18.60;74.60;;;;;;5174670;27;20442;-90
2021/06/22 09:59:49;;;;;;;6.95;2.80;;;18.70;75.30;;;;;;5174681;27;20049;-90
2021/06/22 10:02:14;;;;;;;11.57;3.10;;;18.80;76.80;;;;;;5157806;27;20046;-86
2021/06/22 10:04:49;;;;;;;7.30;2.70;;;18.90;76.70;;;;;;5164862;27;20482;-87
2021/06/22 10:07:22;;;;;;;9.65;2.80;;;19.00;76.90;;;;;;5166004;27;20046;-86
2021/06/22 10:09:54;;;;;;;8.52;3.00;;;19.10;75.20;;;;;;5158636;27;20129;-88
2021/06/22 10:12:20;;;;;;;7.90;2.72;;;19.10;76.00;;;;;;5170058;27;20042;-91
2021/06/22 10:14:49;;;;;;;7.88;2.70;;;19.10;77.20;;;;;;5166061;27;20046;-85
2021/06/22 10:17:21;;;;;;;10.55;3.03;;;19.20;75.30;;;;;;5178594;27;20125;-92
2021/06/22 10:19:52;;;;;;;7.90;2.47;;;19.20;75.20;;;;;;5161188;27;20405;-87
2021/06/22 10:22:23;;;;;;;9.90;2.67;;;19.20;75.70;;;;;;5167376;27;20046;-88
2021/06/22 10:24:50;;;;;;;9.18;2.85;;;19.20;72.20;;;;;;5167987;27;20050;-85
2021/06/22 10:27:19;;;;;;;5.68;2.53;;;19.10;74.80;;;;;;5169524;27;20137;-86
2021/06/22 10:29:47;;;;;;;9.75;3.30;;;19.20;74.30;;;;;;5160371;27;20046;-85
2021/06/22 10:32:14;;;;;;;11.55;2.90;;;19.10;72.80;;;;;;5173361;27;20049;-86
2021/06/22 10:34:51;;;;;;;11.15;2.75;;;19.00;70.90;;;;;;5163892;27;20489;-85
2021/06/22 10:37:24;;;;;;;15.40;3.38;;;19.00;69.50;;;;;;5163854;27;20084;-87
2021/06/22 10:39:52;;;;;;;;;;;19.00;71.70;;;;;;5153551;27;20055;-86
2021/06/22 10:42:18;;;;;;;10.52;3.00;;;18.90;71.20;;;;;;5155579;27;19919;-87
2021/06/22 10:45:01;;;;;;;12.30;3.10;;;18.80;72.60;;;;;;5156961;27;20046;-89
2021/06/22 10:47:33;;;;;;;12.45;3.25;;;18.80;73.80;;;;;;5168978;27;20057;-89
2021/06/22 10:50:03;;;;;;;10.60;3.40;;;18.80;73.70;;;;;;5164147;27;20077;-92
2021/06/22 10:55:48;;;;;;;10.60;3.08;;;18.80;75.80;;;;;;5169138;27;20138;-89
2021/06/22 10:58:16;;;;;;;11.27;3.30;;;18.90;75.30;;;;;;5160354;27;20038;-90
2021/06/22 11:00:51;;;;;;;9.55;3.35;;;18.90;76.90;;;;;;5177065;27;20053;-91
2021/06/22 11:03:24;;;;;;;9.98;3.13;;;19.00;76.00;;;;;;5165243;27;20172;-93
2021/06/22 11:06:23;;;;;;;8.98;3.10;;;19.00;74.60;;;;;;5162660;27;20566;-90
2021/06/22 11:08:50;;;;;;;10.95;3.40;;;19.00;74.60;;;;;;5168638;27;20065;-90
2021/06/22 11:11:18;;;;;;;10.13;3.50;;;19.00;73.40;;;;;;5171569;27;20051;-91
2021/06/22 11:13:47;;;;;;;9.55;3.40;;;18.90;74.40;;;;;;5163696;27;20047;-91
2021/06/22 11:16:13;;;;;;;9.18;2.97;;;18.90;74.90;;;;;;5161094;27;20077;-90
2021/06/22 11:18:56;;;;;;;8.52;3.13;;;18.90;75.60;;;;;;5170864;27;20038;-89
2021/06/22 11:21:28;;;;;;;15.25;3.75;;;18.90;75.20;;;;;;5170744;27;20345;-90
2021/06/22 11:23:57;;;;;;;10.95;3.75;;;18.90;72.60;;;;;;5176879;27;20125;-91
2021/06/22 11:26:25;;;;;;;11.45;3.50;;;18.90;74.00;;;;;;5179283;27;20129;-93
2021/06/22 11:28:58;;;;;;;9.50;2.97;;;18.90;74.20;;;;;;5179607;27;20137;-91
2021/06/22 11:31:50;;;;;;;10.93;3.50;;;18.80;74.40;;;;;;5177793;27;20081;-93
2021/06/22 11:34:19;;;;;;;10.10;3.42;;;18.80;72.70;;;;;;5168779;27;20106;-94
2021/06/22 11:36:47;;;;;;;9.20;2.88;;;18.80;72.80;;;;;;5167223;27;20050;-90
2021/06/22 11:39:18;;;;;;;9.48;3.22;;;18.80;73.50;;;;;;5160656;27;20047;-89
2021/06/22 11:42:09;;;;;;;14.52;3.58;;;18.70;74.90;;;;;;5168937;27;20478;-92
2021/06/22 11:44:37;;;;;;;11.30;3.40;;;18.70;70.50;;;;;;5159042;27;20054;-90
2021/06/22 11:47:04;;;;;;;12.75;3.83;;;18.60;72.00;;;;;;5157741;27;20058;-89
2021/06/22 11:49:41;;;;;;;14.95;3.80;;;18.60;72.30;;;;;;5156400;27;20054;-90
2021/06/22 11:52:12;;;;;;;13.07;4.10;;;18.60;71.10;;;;;;5157259;27;20128;-94
2021/06/22 11:54:47;;;;;;;11.02;3.88;;;18.50;71.10;;;;;;5157064;27;20054;-90
2021/06/22 11:57:17;;;;;;;9.88;3.90;;;18.50;73.10;;;;;;5169450;27;20053;-91
2021/06/22 11:59:43;;;;;;;12.77;3.95;;;18.50;71.90;;;;;;5171875;27;20125;-89
2021/06/22 12:02:09;;;;;;;11.75;4.05;;;18.60;72.20;;;;;;5177489;27;20137;-92
2021/06/22 12:04:34;;;;;;;10.30;3.80;;;18.50;71.30;;;;;;5171511;27;20161;-92
2021/06/22 12:07:01;;;;;;;11.02;4.35;;;18.50;72.30;;;;;;5169721;27;20070;-93
2021/06/22 12:09:27;;;;;;;11.00;4.18;;;18.60;73.60;;;;;;5172466;27;20046;-93
2021/06/22 12:11:57;;;;;;;10.95;4.13;;;18.60;73.40;;;;;;5174712;27;20050;-90
2021/06/22 12:14:23;;;;;;;8.25;3.88;;;18.70;73.80;;;;;;5173539;27;20505;-91
2021/06/22 12:16:49;;;;;;;10.55;4.50;;;18.80;74.60;;;;;;5157650;27;20067;-90
2021/06/22 12:19:18;;;;;;;8.25;4.13;;;18.90;74.50;;;;;;5168201;27;20050;-90
2021/06/22 12:21:49;;;;;;;9.85;4.10;;;18.90;72.50;;;;;;5176427;27;20132;-92
2021/06/22 12:24:16;;;;;;;11.15;4.20;;;18.90;70.90;;;;;;5167907;27;20039;-90
2021/06/22 12:26:43;;;;;;;9.82;4.57;;;19.00;72.90;;;;;;5155233;27;20046;-92
2021/06/22 12:29:39;;;;;;;9.68;3.88;;;19.00;73.50;;;;;;5155481;27;20047;-92
2021/06/22 12:32:08;;;;;;;12.75;4.00;;;19.00;73.30;;;;;;5140548;27;20046;-94
2021/06/22 12:34:41;;;;;;;7.88;3.92;;;19.10;70.50;;;;;;5171058;27;20046;-95
2021/06/22 12:37:22;;;;;;;9.52;4.05;;;19.10;71.90;;;;;;5178038;27;20047;-91
2021/06/22 12:39:49;;;;;;;9.45;3.88;;;19.20;71.10;;;;;;5146635;27;20045;-92
2021/06/22 12:42:20;;;;;;;9.63;4.22;;;19.20;72.20;;;;;;5170985;27;20095;-93
2021/06/22 12:44:46;;;;;;;8.55;4.38;;;19.30;73.20;;;;;;5160742;27;20076;-93
2021/06/22 12:47:12;;;;;;;9.90;3.90;;;19.40;73.60;;;;;;5156813;27;20466;-92